createdAt,value
2018-06-16T00:01:44.658Z,83.10
2018-06-16T00:04:13.160Z,83.30
2018-06-16T00:06:41.766Z,83.20
2018-06-16T00:09:10.893Z,83.30
2018-06-16T00:11:39.481Z,83.50
2018-06-16T00:14:08.194Z,83.50
2018-06-16T00:16:36.734Z,83.20
2018-06-16T00:19:05.328Z,83.50
2018-06-16T00:21:33.874Z,83.60
2018-06-16T00:24:02.419Z,83.60
2018-06-16T00:26:30.978Z,83.60
2018-06-16T00:28:59.477Z,83.30
2018-06-16T00:31:27.965Z,83.00
2018-06-16T00:33:56.588Z,82.90
2018-06-16T00:36:25.144Z,83.20
2018-06-16T00:38:53.632Z,83.30
2018-06-16T00:41:22.195Z,83.70
2018-06-16T00:43:50.700Z,83.70
2018-06-16T00:46:19.245Z,84.00
2018-06-16T00:48:47.755Z,84.10
2018-06-16T00:51:16.234Z,84.10
2018-06-16T00:53:44.739Z,84.30
2018-06-16T00:56:13.278Z,84.30
2018-06-16T00:58:41.802Z,84.20
2018-06-16T01:01:10.368Z,84.20
2018-06-16T01:03:38.891Z,84.20
2018-06-16T01:06:07.397Z,84.30
2018-06-16T01:08:35.910Z,84.50
2018-06-16T01:11:04.439Z,84.60
2018-06-16T01:13:32.937Z,84.40
2018-06-16T01:16:01.442Z,84.70
2018-06-16T01:18:29.951Z,84.80
2018-06-16T01:20:58.481Z,85.10
2018-06-16T01:23:26.982Z,85.20
2018-06-16T01:25:55.601Z,85.30
2018-06-16T01:28:24.097Z,85.20
2018-06-16T01:30:52.602Z,85.30
2018-06-16T01:33:21.222Z,85.70
2018-06-16T01:35:49.805Z,85.60
2018-06-16T01:38:18.299Z,85.80
2018-06-16T01:40:46.802Z,85.80
2018-06-16T01:43:15.274Z,86.00
2018-06-16T01:45:43.805Z,86.00
2018-06-16T01:48:12.363Z,86.10
2018-06-16T01:50:40.870Z,86.10
2018-06-16T01:53:09.410Z,86.10
2018-06-16T01:55:38.003Z,86.30
2018-06-16T01:58:06.541Z,86.30
2018-06-16T02:00:35.074Z,86.20
2018-06-16T02:03:03.618Z,86.40
2018-06-16T02:05:32.169Z,86.00
2018-06-16T02:08:00.764Z,85.80
2018-06-16T02:10:29.304Z,85.60
2018-06-16T02:12:57.813Z,85.30
2018-06-16T02:15:26.342Z,85.30
2018-06-16T02:17:54.859Z,85.70
2018-06-16T02:20:23.342Z,86.00
2018-06-16T02:22:51.910Z,86.20
2018-06-16T02:25:20.407Z,86.40
2018-06-16T02:27:48.958Z,86.30
2018-06-16T02:30:17.450Z,86.10
2018-06-16T02:32:45.951Z,86.20
2018-06-16T02:37:42.648Z,86.20
2018-06-16T02:40:11.179Z,86.10
2018-06-16T02:42:39.710Z,85.70
2018-06-16T02:45:08.349Z,85.50
2018-06-16T02:47:36.838Z,85.50
2018-06-16T02:50:05.588Z,85.50
2018-06-16T02:52:34.324Z,85.70
2018-06-16T02:55:02.937Z,85.70
2018-06-16T02:57:31.490Z,86.10
2018-06-16T03:00:00.008Z,86.30
2018-06-16T03:02:28.518Z,86.40
2018-06-16T03:04:57.018Z,86.50
2018-06-16T03:07:25.514Z,86.40
2018-06-16T03:09:54.033Z,86.40
2018-06-16T03:12:22.571Z,86.30
2018-06-16T03:14:51.093Z,86.30
2018-06-16T03:17:19.641Z,86.50
2018-06-16T03:19:48.159Z,87.00
2018-06-16T03:22:16.674Z,87.00
2018-06-16T03:24:45.198Z,87.20
2018-06-16T03:27:13.776Z,87.20
2018-06-16T03:29:42.299Z,87.00
2018-06-16T03:32:10.828Z,87.20
2018-06-16T03:34:39.361Z,87.00
2018-06-16T03:37:07.978Z,86.80
2018-06-16T03:39:36.479Z,86.70
2018-06-16T03:42:04.965Z,87.10
2018-06-16T03:44:33.545Z,87.50
2018-06-16T03:47:02.049Z,87.30
2018-06-16T03:49:30.570Z,87.20
2018-06-16T03:51:59.124Z,87.10
2018-06-16T03:54:27.673Z,87.20
2018-06-16T03:56:56.215Z,86.60
2018-06-16T03:59:24.764Z,87.00
2018-06-16T04:01:53.313Z,87.40
2018-06-16T04:04:21.819Z,87.50
2018-06-16T04:06:50.398Z,87.50
2018-06-16T04:09:18.974Z,87.40
2018-06-16T04:11:47.495Z,86.90
2018-06-16T04:14:15.996Z,86.70
2018-06-16T04:16:44.570Z,86.60
2018-06-16T04:19:13.093Z,86.60
2018-06-16T04:21:41.692Z,86.80
2018-06-16T04:24:10.299Z,86.60
2018-06-16T04:26:38.798Z,85.90
2018-06-16T04:29:07.325Z,85.10
2018-06-16T04:31:35.912Z,85.30
2018-06-16T04:34:04.467Z,85.50
2018-06-16T04:36:33.047Z,85.10
2018-06-16T04:39:01.556Z,85.00
2018-06-16T04:41:30.129Z,85.10
2018-06-16T04:43:58.670Z,84.90
2018-06-16T04:46:27.215Z,85.60
2018-06-16T04:48:55.729Z,85.20
2018-06-16T04:51:24.323Z,85.50
2018-06-16T04:53:52.852Z,85.20
2018-06-16T04:56:21.351Z,84.50
2018-06-16T04:58:49.895Z,84.60
2018-06-16T05:01:18.458Z,84.30
2018-06-16T05:03:46.973Z,83.60
2018-06-16T05:06:15.478Z,84.00
2018-06-16T05:08:43.979Z,84.30
2018-06-16T05:11:12.538Z,84.80
2018-06-16T05:13:41.058Z,85.10
2018-06-16T05:16:09.562Z,84.90
2018-06-16T05:18:38.053Z,84.70
2018-06-16T05:21:06.569Z,84.80
2018-06-16T05:23:35.099Z,83.70
2018-06-16T05:26:03.663Z,82.80
2018-06-16T05:28:33.440Z,82.70
2018-06-16T05:31:02.273Z,82.50
2018-06-16T05:33:30.782Z,82.20
2018-06-16T05:35:59.311Z,82.00
2018-06-16T05:38:27.903Z,82.30
2018-06-16T05:40:56.455Z,82.50
2018-06-16T05:43:24.959Z,82.90
2018-06-16T05:45:53.466Z,83.10
2018-06-16T05:48:21.970Z,83.10
2018-06-16T05:50:50.492Z,82.50
2018-06-16T05:53:19.017Z,81.00
2018-06-16T05:55:47.601Z,80.50
2018-06-16T05:58:16.126Z,80.20
2018-06-16T06:00:44.645Z,79.20
2018-06-16T06:03:13.190Z,78.10
2018-06-16T06:05:41.734Z,79.50
2018-06-16T06:08:10.226Z,78.90
2018-06-16T06:10:39.385Z,79.40
2018-06-16T06:13:08.032Z,78.60
2018-06-16T06:15:36.610Z,78.60
2018-06-16T06:18:05.146Z,78.10
2018-06-16T06:20:33.685Z,77.20
2018-06-16T06:23:02.214Z,76.70
2018-06-16T06:25:31.808Z,75.10
2018-06-16T06:28:00.359Z,74.00
2018-06-16T06:30:28.981Z,75.40
2018-06-16T06:32:57.528Z,72.70
2018-06-16T06:35:26.058Z,73.20
2018-06-16T06:37:54.578Z,73.30
2018-06-16T06:40:23.098Z,72.50
2018-06-16T06:42:51.602Z,73.10
2018-06-16T06:45:20.121Z,73.50
2018-06-16T06:47:48.642Z,74.00
2018-06-16T06:50:17.144Z,73.70
2018-06-16T06:52:45.650Z,73.30
2018-06-16T06:55:14.228Z,72.30
2018-06-16T06:57:42.795Z,72.80
2018-06-16T07:00:11.298Z,74.50
2018-06-16T07:02:39.826Z,72.50
2018-06-16T07:05:08.365Z,72.80
2018-06-16T07:07:36.890Z,72.00
2018-06-16T07:10:05.419Z,70.60
2018-06-16T07:12:33.926Z,71.10
2018-06-16T07:15:02.483Z,69.80
2018-06-16T07:17:31.055Z,69.00
2018-06-16T07:19:59.580Z,68.40
2018-06-16T07:22:28.122Z,68.30
2018-06-16T07:24:57.177Z,68.10
2018-06-16T07:27:25.701Z,70.10
2018-06-16T07:29:55.151Z,67.40
2018-06-16T07:32:23.714Z,69.40
2018-06-16T07:34:52.237Z,66.10
2018-06-16T07:37:20.790Z,66.60
2018-06-16T07:39:49.324Z,67.10
2018-06-16T07:42:17.836Z,62.60
2018-06-16T07:44:46.378Z,62.10
2018-06-16T07:47:14.926Z,61.20
2018-06-16T07:49:43.464Z,59.60
2018-06-16T07:52:11.954Z,58.00
2018-06-16T07:54:40.495Z,57.60
2018-06-16T07:57:09.075Z,59.30
2018-06-16T07:59:37.615Z,61.30
2018-06-16T08:02:06.126Z,59.90
2018-06-16T08:04:34.767Z,57.10
2018-06-16T08:07:03.332Z,57.80
2018-06-16T08:09:31.946Z,60.70
2018-06-16T08:12:00.507Z,55.70
2018-06-16T08:14:29.022Z,53.10
2018-06-16T08:16:57.563Z,52.80
2018-06-16T08:19:26.075Z,54.00
2018-06-16T08:21:54.650Z,53.70
2018-06-16T08:24:23.166Z,54.30
2018-06-16T08:26:51.691Z,54.20
2018-06-16T08:29:20.240Z,53.50
2018-06-16T08:31:48.721Z,51.30
2018-06-16T08:34:17.247Z,51.70
2018-06-16T08:36:45.752Z,51.50
2018-06-16T08:39:14.240Z,51.10
2018-06-16T08:41:42.766Z,51.00
2018-06-16T08:44:11.296Z,51.60
2018-06-16T08:46:39.816Z,50.80
2018-06-16T08:49:08.926Z,54.40
2018-06-16T08:51:40.117Z,55.70
2018-06-16T08:56:36.969Z,53.80
2018-06-16T08:59:05.518Z,55.00
2018-06-16T09:01:33.999Z,52.30
2018-06-16T09:04:02.892Z,51.50
2018-06-16T09:06:31.410Z,50.50
2018-06-16T09:09:00.027Z,48.80
2018-06-16T09:11:29.200Z,50.70
2018-06-16T09:13:58.784Z,50.30
2018-06-16T09:16:27.331Z,48.80
2018-06-16T09:18:55.866Z,50.80
2018-06-16T09:21:24.351Z,52.20
2018-06-16T09:23:53.206Z,52.40
2018-06-16T09:26:21.719Z,51.90
2018-06-16T09:28:50.220Z,52.50
2018-06-16T09:31:19.583Z,51.40
2018-06-16T09:33:48.317Z,51.50
2018-06-16T09:36:16.844Z,51.10
2018-06-16T09:38:45.388Z,51.10
2018-06-16T09:41:13.900Z,51.10
2018-06-16T09:43:43.008Z,49.40
2018-06-16T09:46:13.487Z,50.00
2018-06-16T09:48:42.040Z,49.90
2018-06-16T09:51:10.550Z,49.00
2018-06-16T09:53:39.097Z,50.30
2018-06-16T09:56:07.885Z,50.00
2018-06-16T09:58:36.409Z,49.40
2018-06-16T10:01:04.937Z,50.60
2018-06-16T10:03:33.443Z,51.00
2018-06-16T10:06:01.987Z,51.20
2018-06-16T10:08:30.534Z,51.20
2018-06-16T10:10:59.098Z,51.90
2018-06-16T10:13:27.693Z,52.30
2018-06-16T10:15:56.262Z,50.40
2018-06-16T10:18:24.848Z,50.00
2018-06-16T10:20:53.524Z,53.30
2018-06-16T10:23:21.996Z,52.30
2018-06-16T10:25:50.518Z,50.10
2018-06-16T10:28:19.055Z,50.00
2018-06-16T10:30:47.729Z,50.20
2018-06-16T10:33:16.273Z,50.70
2018-06-16T10:35:44.841Z,52.20
2018-06-16T10:38:13.366Z,53.30
2018-06-16T10:40:41.910Z,52.20
2018-06-16T10:43:10.442Z,52.20
2018-06-16T10:45:38.965Z,51.10
2018-06-16T10:48:07.491Z,52.40
2018-06-16T10:50:35.991Z,51.80
2018-06-16T10:53:04.521Z,53.40
2018-06-16T10:55:33.082Z,50.40
2018-06-16T10:58:01.596Z,45.30
2018-06-16T11:00:30.202Z,46.50
2018-06-16T11:02:58.711Z,46.10
2018-06-16T11:05:27.236Z,47.80
2018-06-16T11:07:55.758Z,47.20
2018-06-16T11:10:24.329Z,46.80
2018-06-16T11:12:52.854Z,45.30
2018-06-16T11:15:21.368Z,48.00
2018-06-16T11:17:49.972Z,45.30
2018-06-16T11:20:18.528Z,47.20
2018-06-16T11:22:47.034Z,47.60
2018-06-16T11:25:15.529Z,49.10
2018-06-16T11:27:44.163Z,46.90
2018-06-16T11:30:12.701Z,47.50
2018-06-16T11:32:41.210Z,47.50
2018-06-16T11:35:09.738Z,50.90
2018-06-16T11:37:38.305Z,48.20
2018-06-16T11:40:06.859Z,46.00
2018-06-16T11:42:35.338Z,45.10
2018-06-16T11:45:03.847Z,44.20
2018-06-16T11:47:33.759Z,41.60
2018-06-16T11:50:02.314Z,44.50
2018-06-16T11:52:31.856Z,42.30
2018-06-16T11:55:00.390Z,42.90
2018-06-16T11:57:28.916Z,45.40
2018-06-16T12:02:25.619Z,45.10
2018-06-16T12:04:54.338Z,46.30
2018-06-16T12:07:22.865Z,47.40
2018-06-16T12:09:51.458Z,45.80
2018-06-16T12:12:20.057Z,47.20
2018-06-16T12:14:48.574Z,48.10
2018-06-16T12:17:17.123Z,48.90
2018-06-16T12:19:45.653Z,48.30
2018-06-16T12:22:14.246Z,47.70
2018-06-16T12:24:42.782Z,47.20
2018-06-16T12:27:11.401Z,47.10
2018-06-16T12:29:39.985Z,49.00
2018-06-16T12:32:08.570Z,47.30
2018-06-16T12:34:37.122Z,48.40
2018-06-16T12:37:05.753Z,46.90
2018-06-16T12:39:34.319Z,47.80
2018-06-16T12:42:02.849Z,47.70
2018-06-16T12:44:31.388Z,48.30
2018-06-16T12:47:00.615Z,48.00
2018-06-16T12:49:29.214Z,49.10
2018-06-16T12:51:59.014Z,48.00
2018-06-16T12:54:28.034Z,50.30
2018-06-16T12:56:56.568Z,47.80
2018-06-16T12:59:25.187Z,49.40
2018-06-16T13:01:54.207Z,48.20
2018-06-16T13:04:22.769Z,48.00
2018-06-16T13:06:51.275Z,49.10
2018-06-16T13:09:20.115Z,44.40
2018-06-16T13:11:48.706Z,44.90
2018-06-16T13:14:17.205Z,42.50
2018-06-16T13:16:45.818Z,42.40
2018-06-16T13:19:14.305Z,43.40
2018-06-16T13:26:42.910Z,43.20
2018-06-16T13:29:12.726Z,43.80
2018-06-16T13:31:43.588Z,41.30
2018-06-16T13:34:13.635Z,42.60
2018-06-16T13:36:42.221Z,43.60
2018-06-16T13:39:14.185Z,42.10
2018-06-16T13:41:43.186Z,39.80
2018-06-16T13:44:13.418Z,40.30
2018-06-16T13:46:44.309Z,39.60
2018-06-16T13:49:13.677Z,41.30
2018-06-16T13:51:42.398Z,41.70
2018-06-16T13:54:11.204Z,42.40
2018-06-16T13:56:40.405Z,43.80
2018-06-16T13:59:09.343Z,41.90
2018-06-16T14:01:38.072Z,42.40
2018-06-16T14:04:06.821Z,42.20
2018-06-16T14:06:35.596Z,43.60
2018-06-16T14:09:06.507Z,45.00
2018-06-16T14:11:35.253Z,45.50
2018-06-16T14:14:03.866Z,43.60
2018-06-16T14:16:32.380Z,44.20
2018-06-16T14:19:00.977Z,42.60
2018-06-16T14:21:29.516Z,42.60
2018-06-16T14:23:58.063Z,43.00
2018-06-16T14:26:26.594Z,43.30
2018-06-16T14:28:55.222Z,42.00
2018-06-16T14:31:23.744Z,44.10
2018-06-16T14:33:52.308Z,43.40
2018-06-16T14:36:23.658Z,43.00
2018-06-16T14:38:56.122Z,43.30
2018-06-16T14:41:25.822Z,41.80
2018-06-16T14:43:58.782Z,43.60
2018-06-16T14:46:29.459Z,41.60
2018-06-16T14:48:59.914Z,41.10
2018-06-16T14:51:29.194Z,41.10
2018-06-16T14:53:57.973Z,41.90
2018-06-16T14:56:26.530Z,42.20
2018-06-16T14:58:55.139Z,39.10
2018-06-16T15:01:23.946Z,40.40
2018-06-16T15:03:52.534Z,38.40
2018-06-16T15:06:21.153Z,38.20
2018-06-16T15:08:51.175Z,39.10
2018-06-16T15:11:24.841Z,38.30
2018-06-16T15:13:57.588Z,39.70
2018-06-16T15:16:30.475Z,41.00
2018-06-16T15:19:01.955Z,39.60
2018-06-16T15:21:37.799Z,40.70
2018-06-16T15:24:06.965Z,41.30
2018-06-16T15:26:35.916Z,39.80
2018-06-16T15:29:04.502Z,39.80
2018-06-16T15:31:33.166Z,40.60
2018-06-16T15:34:01.651Z,41.10
2018-06-16T15:36:30.188Z,42.30
2018-06-16T15:38:58.862Z,41.20
2018-06-16T15:41:27.930Z,41.60
2018-06-16T15:43:56.464Z,42.70
2018-06-16T15:46:25.192Z,43.40
2018-06-16T15:48:54.000Z,43.10
2018-06-16T15:51:22.549Z,42.90
2018-06-16T15:53:51.144Z,42.90
2018-06-16T15:56:19.685Z,43.00
2018-06-16T15:58:50.783Z,43.20
2018-06-16T16:01:19.355Z,44.20
2018-06-16T16:03:50.877Z,43.90
2018-06-16T16:06:19.669Z,44.10
2018-06-16T16:08:48.506Z,43.90
2018-06-16T16:11:17.135Z,43.90
2018-06-16T16:13:45.772Z,44.20
2018-06-16T16:16:14.277Z,45.00
2018-06-16T16:18:42.852Z,45.00
2018-06-16T16:21:11.361Z,46.10
2018-06-16T16:23:39.879Z,46.50
2018-06-16T16:26:08.445Z,46.80
2018-06-16T16:28:36.991Z,46.90
2018-06-16T16:31:05.556Z,47.20
2018-06-16T16:33:34.071Z,48.40
2018-06-16T16:36:02.624Z,48.90
2018-06-16T16:38:31.374Z,49.00
2018-06-16T16:40:59.970Z,49.30
2018-06-16T16:43:28.594Z,49.80
2018-06-16T16:45:59.413Z,50.30
2018-06-16T16:48:27.914Z,50.70
2018-06-16T16:50:56.434Z,51.30
2018-06-16T16:53:24.946Z,52.30
2018-06-16T16:55:53.478Z,53.70
2018-06-16T16:58:22.039Z,54.10
2018-06-16T17:00:50.923Z,54.60
2018-06-16T17:03:19.446Z,55.30
2018-06-16T17:05:47.981Z,55.70
2018-06-16T17:08:16.467Z,56.10
2018-06-16T17:10:44.109Z,56.70
2018-06-16T17:13:11.763Z,56.90
2018-06-16T17:15:39.490Z,57.10
2018-06-16T17:18:07.143Z,57.10
2018-06-16T17:20:34.763Z,57.20
2018-06-16T17:23:02.398Z,57.30
2018-06-16T17:25:30.014Z,57.10
2018-06-16T17:27:57.629Z,57.80
2018-06-16T17:30:25.244Z,57.90
2018-06-16T17:32:52.894Z,58.80
2018-06-16T17:35:20.720Z,59.00
2018-06-16T17:37:48.329Z,59.10
2018-06-16T17:40:16.073Z,59.10
2018-06-16T17:42:43.742Z,58.50
2018-06-16T17:45:11.379Z,58.50
2018-06-16T17:47:39.701Z,59.90
2018-06-16T17:50:07.489Z,60.40
2018-06-16T17:52:41.041Z,59.20
2018-06-16T17:55:09.775Z,58.90
2018-06-16T17:57:37.444Z,58.90
2018-06-16T18:00:05.265Z,58.50
2018-06-16T18:02:32.968Z,58.50
2018-06-16T18:05:00.790Z,58.80
2018-06-16T18:07:28.495Z,59.20
2018-06-16T18:09:56.157Z,59.30
2018-06-16T18:12:23.808Z,59.50
2018-06-16T18:14:51.545Z,60.20
2018-06-16T18:17:19.274Z,60.00
2018-06-16T18:19:46.978Z,60.30
2018-06-16T18:22:14.610Z,60.90
2018-06-16T18:24:45.287Z,61.40
2018-06-16T18:27:12.997Z,61.90
2018-06-16T18:29:40.687Z,61.90
2018-06-16T18:32:08.331Z,61.70
2018-06-16T18:34:35.971Z,61.40
2018-06-16T18:37:03.650Z,62.10
2018-06-16T18:39:31.357Z,62.10
2018-06-16T18:41:58.995Z,62.30
2018-06-16T18:44:26.638Z,62.50
2018-06-16T18:46:54.269Z,62.80
2018-06-16T18:49:21.906Z,63.20
2018-06-16T18:51:49.582Z,63.10
2018-06-16T18:54:17.333Z,63.20
2018-06-16T18:56:45.016Z,63.60
2018-06-16T18:59:12.696Z,63.30
2018-06-16T19:01:40.422Z,63.70
2018-06-16T19:04:08.173Z,63.60
2018-06-16T19:06:35.821Z,63.60
2018-06-16T19:09:05.181Z,63.50
2018-06-16T19:11:32.854Z,63.30
2018-06-16T19:14:00.601Z,63.40
2018-06-16T19:16:28.328Z,64.10
2018-06-16T19:18:55.967Z,64.50
2018-06-16T19:21:23.741Z,64.80
2018-06-16T19:23:51.405Z,64.30
2018-06-16T19:26:19.115Z,64.30
2018-06-16T19:28:47.028Z,64.60
2018-06-16T19:31:14.757Z,66.00
2018-06-16T19:33:42.442Z,67.60
2018-06-16T19:36:10.100Z,68.40
2018-06-16T19:38:37.803Z,69.50
2018-06-16T19:41:05.657Z,69.70
2018-06-16T19:43:33.329Z,70.10
2018-06-16T19:46:01.002Z,70.50
2018-06-16T19:48:28.763Z,70.80
2018-06-16T19:50:56.393Z,71.30
2018-06-16T19:53:24.079Z,71.80
2018-06-16T19:55:51.792Z,72.30
2018-06-16T19:58:19.463Z,72.50
2018-06-16T20:00:47.133Z,72.90
2018-06-16T20:03:14.866Z,73.30
2018-06-16T20:05:42.600Z,73.70
2018-06-16T20:08:10.324Z,74.00
2018-06-16T20:10:38.925Z,74.30
2018-06-16T20:13:06.625Z,74.60
2018-06-16T20:15:34.383Z,74.80
2018-06-16T20:18:02.074Z,74.90
2018-06-16T20:20:29.760Z,75.40
2018-06-16T20:22:57.411Z,75.60
2018-06-16T20:25:25.096Z,75.80
2018-06-16T20:27:52.758Z,75.70
2018-06-16T20:30:20.420Z,75.90
2018-06-16T20:32:48.274Z,76.20
2018-06-16T20:35:15.978Z,76.50
2018-06-16T20:37:43.659Z,76.60
2018-06-16T20:40:11.431Z,76.90
2018-06-16T20:42:39.075Z,77.20
2018-06-16T20:45:06.722Z,76.80
2018-06-16T20:47:34.402Z,77.00
2018-06-16T20:50:02.084Z,77.20
2018-06-16T20:52:29.779Z,77.40
2018-06-16T20:54:57.452Z,77.60
2018-06-16T20:57:25.202Z,77.60
2018-06-16T20:59:52.839Z,78.10
2018-06-16T21:02:20.586Z,78.20
2018-06-16T21:04:48.303Z,78.40
2018-06-16T21:07:16.097Z,78.70
2018-06-16T21:09:43.785Z,78.60
2018-06-16T21:12:11.539Z,78.70
2018-06-16T21:14:39.186Z,78.80
2018-06-16T21:17:06.865Z,79.10
2018-06-16T21:19:34.585Z,79.30
2018-06-16T21:22:02.590Z,79.60
2018-06-16T21:24:30.260Z,79.70
2018-06-16T21:26:57.893Z,80.00
2018-06-16T21:29:25.550Z,79.90
2018-06-16T21:31:53.221Z,80.10
2018-06-16T21:34:20.879Z,80.10
2018-06-16T21:36:48.521Z,80.20
2018-06-16T21:39:16.214Z,80.20
2018-06-16T21:41:44.027Z,80.30
2018-06-16T21:44:11.693Z,80.30
2018-06-16T21:46:39.329Z,80.50
2018-06-16T21:49:06.962Z,80.50
2018-06-16T21:51:34.627Z,80.60
2018-06-16T21:54:02.247Z,80.80
2018-06-16T21:56:29.907Z,80.90
2018-06-16T21:58:57.549Z,81.00
2018-06-16T22:01:31.283Z,81.00
2018-06-16T22:03:59.199Z,81.10
2018-06-16T22:06:26.879Z,81.40
2018-06-16T22:08:54.548Z,81.50
2018-06-16T22:11:22.195Z,81.60
2018-06-16T22:13:49.854Z,81.40
2018-06-16T22:16:17.513Z,81.40
2018-06-16T22:18:45.154Z,81.30
2018-06-16T22:21:12.869Z,81.50
2018-06-16T22:23:40.590Z,81.60
2018-06-16T22:26:08.228Z,81.30
2018-06-16T22:28:35.852Z,81.40
2018-06-16T22:31:03.564Z,81.40
2018-06-16T22:33:31.204Z,81.10
2018-06-16T22:35:58.881Z,81.40
2018-06-16T22:38:26.533Z,81.20
2018-06-16T22:40:54.240Z,81.30
2018-06-16T22:43:21.882Z,81.50
2018-06-16T22:45:49.533Z,81.60
2018-06-16T22:48:17.186Z,81.80
2018-06-16T22:50:44.843Z,81.80
2018-06-16T22:53:12.471Z,82.00
2018-06-16T22:55:40.137Z,82.20
2018-06-16T22:58:07.876Z,82.20
2018-06-16T23:00:35.519Z,82.00
2018-06-16T23:03:03.226Z,82.20
2018-06-16T23:05:30.874Z,82.10
2018-06-16T23:07:58.518Z,82.30
2018-06-16T23:10:26.154Z,82.20
2018-06-16T23:12:53.802Z,82.60
2018-06-16T23:15:21.434Z,82.70
2018-06-16T23:17:49.075Z,82.90
2018-06-16T23:20:16.743Z,82.70
2018-06-16T23:22:44.427Z,82.70
2018-06-16T23:25:12.076Z,82.80
2018-06-16T23:27:39.686Z,82.90
2018-06-16T23:30:07.380Z,83.20
2018-06-16T23:32:35.043Z,83.20
2018-06-16T23:35:02.705Z,83.30
2018-06-16T23:37:30.350Z,83.50
2018-06-16T23:39:58.049Z,83.40
2018-06-16T23:42:25.691Z,83.40
2018-06-16T23:44:53.320Z,83.50
2018-06-16T23:47:20.952Z,83.50
2018-06-16T23:49:48.589Z,83.80
2018-06-16T23:52:16.357Z,83.60
2018-06-16T23:54:43.994Z,83.80
2018-06-16T23:57:11.678Z,83.80
2018-06-16T23:59:39.312Z,83.80
